createdAt,value
2022-12-31T00:07:47.163Z,16
2022-12-31T00:08:47.163Z,17
2022-12-31T00:09:47.155Z,15
2022-12-31T00:10:47.169Z,16
2022-12-31T00:11:47.148Z,16
2022-12-31T00:14:47.179Z,13
2022-12-31T00:15:47.152Z,14
2022-12-31T00:16:47.214Z,13
2022-12-31T00:17:47.184Z,12
2022-12-31T00:18:47.159Z,11
2022-12-31T00:19:47.150Z,10
2022-12-31T00:20:47.166Z,10
2022-12-31T00:21:47.160Z,11
2022-12-31T00:22:47.167Z,10
2022-12-31T00:23:47.155Z,8
2022-12-31T00:24:47.153Z,9
2022-12-31T00:25:47.175Z,8
2022-12-31T00:28:47.149Z,8
2022-12-31T00:29:47.168Z,8
2022-12-31T00:30:47.183Z,8
2022-12-31T00:31:47.153Z,8
2022-12-31T00:32:47.154Z,8
2022-12-31T00:34:47.174Z,8
2022-12-31T00:35:47.160Z,9
2022-12-31T00:36:47.168Z,10
2022-12-31T00:37:47.152Z,10
2022-12-31T00:38:47.152Z,12
2022-12-31T00:43:47.160Z,14
2022-12-31T00:44:47.173Z,16
2022-12-31T00:45:47.188Z,12
2022-12-31T00:46:47.154Z,11
2022-12-31T00:47:47.160Z,11
2022-12-31T00:48:47.184Z,11
2022-12-31T00:49:47.168Z,10
2022-12-31T00:50:47.150Z,9
2022-12-31T00:51:47.157Z,10
2022-12-31T00:52:47.167Z,10
2022-12-31T00:53:47.164Z,10
2022-12-31T00:54:47.188Z,9
2022-12-31T00:55:47.153Z,9
2022-12-31T00:56:47.159Z,8
2022-12-31T00:57:47.193Z,9
2022-12-31T00:58:47.160Z,9
2022-12-31T00:59:47.193Z,8
2022-12-31T01:00:47.157Z,8
2022-12-31T01:01:47.323Z,8
2022-12-31T01:02:47.333Z,9
2022-12-31T01:03:47.168Z,7
2022-12-31T01:04:47.175Z,7
2022-12-31T01:05:47.178Z,9
2022-12-31T01:06:47.166Z,8
2022-12-31T01:07:47.160Z,8
2022-12-31T01:08:47.158Z,7
2022-12-31T01:09:47.163Z,8
2022-12-31T01:10:47.165Z,8
2022-12-31T01:11:47.179Z,8
2022-12-31T01:12:47.164Z,7
2022-12-31T01:13:47.181Z,8
2022-12-31T01:14:47.166Z,7
2022-12-31T01:15:47.208Z,8
2022-12-31T01:16:47.157Z,8
2022-12-31T01:17:47.162Z,9
2022-12-31T01:18:47.164Z,9
2022-12-31T01:19:47.191Z,9
2022-12-31T01:20:47.169Z,8
2022-12-31T01:21:47.202Z,9
2022-12-31T01:22:47.163Z,8
2022-12-31T01:23:47.169Z,8
2022-12-31T01:24:47.174Z,8
2022-12-31T01:25:47.164Z,9
2022-12-31T01:26:47.184Z,10
2022-12-31T01:27:47.162Z,9
2022-12-31T01:28:47.170Z,9
2022-12-31T01:29:47.166Z,9
2022-12-31T01:30:47.209Z,9
2022-12-31T01:31:47.173Z,9
2022-12-31T01:32:47.163Z,10
2022-12-31T01:33:47.173Z,10
2022-12-31T01:34:47.167Z,10
2022-12-31T01:35:47.169Z,9
2022-12-31T01:36:47.177Z,8
2022-12-31T01:37:47.172Z,9
2022-12-31T01:38:47.163Z,9
2022-12-31T01:39:47.176Z,9
2022-12-31T01:40:47.166Z,9
2022-12-31T01:41:47.169Z,8
2022-12-31T01:42:47.169Z,8
2022-12-31T01:43:47.182Z,8
2022-12-31T01:44:47.185Z,6
2022-12-31T01:45:47.174Z,8
2022-12-31T01:46:47.222Z,7
2022-12-31T01:47:47.167Z,8
2022-12-31T01:48:47.191Z,8
2022-12-31T01:49:47.169Z,8
2022-12-31T01:50:47.219Z,8
2022-12-31T01:51:47.177Z,8
2022-12-31T01:52:47.180Z,7
2022-12-31T01:53:47.177Z,7
2022-12-31T01:54:47.198Z,8
2022-12-31T01:55:47.173Z,8
2022-12-31T01:56:47.180Z,9
2022-12-31T01:57:47.168Z,8
2022-12-31T01:58:47.171Z,8
2022-12-31T01:59:47.181Z,8
2022-12-31T02:00:47.169Z,8
2022-12-31T02:01:47.252Z,8
2022-12-31T02:02:47.323Z,8
2022-12-31T02:03:47.181Z,9
2022-12-31T02:04:47.176Z,9
2022-12-31T02:05:47.952Z,10
2022-12-31T02:06:47.175Z,10
2022-12-31T02:07:47.178Z,9
2022-12-31T02:08:47.574Z,10
2022-12-31T02:09:47.173Z,9
2022-12-31T02:10:47.178Z,10
2022-12-31T02:11:47.168Z,10
2022-12-31T02:12:47.174Z,10
2022-12-31T02:13:47.175Z,10
2022-12-31T02:14:47.177Z,9
2022-12-31T02:15:47.229Z,10
2022-12-31T02:16:47.174Z,10
2022-12-31T02:17:47.178Z,9
2022-12-31T02:18:47.168Z,10
2022-12-31T02:19:47.176Z,10
2022-12-31T02:20:47.172Z,9
2022-12-31T02:21:47.201Z,9
2022-12-31T02:22:47.209Z,8
2022-12-31T02:23:47.175Z,8
2022-12-31T02:24:47.320Z,9
2022-12-31T02:25:47.173Z,8
2022-12-31T02:26:47.173Z,8
2022-12-31T02:28:47.185Z,9
2022-12-31T02:29:47.178Z,8
2022-12-31T02:30:47.169Z,7
2022-12-31T02:31:47.218Z,8
2022-12-31T02:32:47.180Z,8
2022-12-31T02:33:47.179Z,7
2022-12-31T02:34:47.170Z,8
2022-12-31T02:35:47.177Z,7
2022-12-31T02:36:47.170Z,7
2022-12-31T02:37:47.172Z,7
2022-12-31T02:38:47.174Z,6
2022-12-31T02:39:47.194Z,6
2022-12-31T02:40:47.177Z,5
2022-12-31T02:41:47.184Z,6
2022-12-31T02:42:53.291Z,7
2022-12-31T02:43:47.186Z,7
2022-12-31T02:44:47.185Z,6
2022-12-31T02:45:47.179Z,8
2022-12-31T02:46:47.215Z,8
2022-12-31T02:47:47.165Z,8
2022-12-31T02:48:47.194Z,8
2022-12-31T02:49:47.190Z,9
2022-12-31T02:50:47.176Z,10
2022-12-31T02:51:47.172Z,10
2022-12-31T02:52:47.195Z,11
2022-12-31T02:53:47.191Z,11
2022-12-31T02:54:47.173Z,11
2022-12-31T02:55:47.191Z,11
2022-12-31T02:56:47.180Z,10
2022-12-31T02:57:47.188Z,9
2022-12-31T02:58:47.174Z,8
2022-12-31T02:59:47.177Z,7
2022-12-31T03:00:47.211Z,6
2022-12-31T03:01:47.355Z,6
2022-12-31T03:02:47.222Z,6
2022-12-31T03:03:47.178Z,6
2022-12-31T03:04:47.187Z,6
2022-12-31T03:05:47.181Z,6
2022-12-31T03:06:47.179Z,6
2022-12-31T03:07:47.174Z,6
2022-12-31T03:08:47.182Z,5
2022-12-31T03:09:47.210Z,5
2022-12-31T03:10:47.171Z,5
2022-12-31T03:11:47.197Z,4
2022-12-31T03:12:47.500Z,4
2022-12-31T03:13:47.183Z,6
2022-12-31T03:14:47.193Z,8
2022-12-31T03:15:47.191Z,11
2022-12-31T03:16:47.189Z,14
2022-12-31T03:17:47.173Z,0
2022-12-31T03:18:47.183Z,15
2022-12-31T03:19:47.181Z,13
2022-12-31T03:20:47.180Z,12
2022-12-31T03:21:47.175Z,14
2022-12-31T03:22:47.185Z,13
2022-12-31T03:23:47.225Z,14
2022-12-31T03:24:47.175Z,13
2022-12-31T03:25:47.184Z,13
2022-12-31T03:26:47.987Z,0
2022-12-31T03:27:47.188Z,0
2022-12-31T03:28:47.177Z,0
2022-12-31T03:29:47.179Z,0
2022-12-31T03:30:47.191Z,0
2022-12-31T03:31:47.206Z,0
2022-12-31T03:32:47.193Z,0
2022-12-31T03:33:47.188Z,0
2022-12-31T03:34:47.180Z,0
2022-12-31T03:35:47.174Z,0
2022-12-31T03:36:47.189Z,0
2022-12-31T03:37:47.197Z,0
2022-12-31T03:38:51.193Z,0
2022-12-31T03:39:47.179Z,0
2022-12-31T03:40:47.179Z,0
2022-12-31T03:41:47.177Z,0
2022-12-31T03:42:47.178Z,0
2022-12-31T03:43:47.188Z,0
2022-12-31T03:44:47.188Z,0
2022-12-31T03:45:47.203Z,0
2022-12-31T03:46:47.188Z,0
2022-12-31T03:47:47.204Z,0
2022-12-31T03:48:47.188Z,0
2022-12-31T03:49:47.178Z,0
2022-12-31T03:50:47.248Z,0
2022-12-31T03:51:47.178Z,0
2022-12-31T03:52:47.201Z,0
2022-12-31T03:53:47.195Z,0
2022-12-31T03:54:47.213Z,0
2022-12-31T03:55:47.180Z,0
2022-12-31T03:56:49.552Z,0
2022-12-31T03:57:47.198Z,0
2022-12-31T03:58:47.191Z,0
2022-12-31T03:59:47.187Z,0
2022-12-31T04:00:47.225Z,0
2022-12-31T04:01:47.295Z,0
2022-12-31T04:02:47.290Z,0
2022-12-31T04:03:47.189Z,0
2022-12-31T04:04:47.193Z,0
2022-12-31T04:05:47.177Z,0
2022-12-31T04:06:47.186Z,0
2022-12-31T04:07:47.188Z,0
2022-12-31T04:08:47.188Z,0
2022-12-31T04:09:47.193Z,4
2022-12-31T04:10:47.186Z,0
2022-12-31T04:11:47.187Z,0
2022-12-31T04:12:47.247Z,0
2022-12-31T04:13:47.192Z,0
2022-12-31T04:14:47.193Z,0
2022-12-31T04:15:47.195Z,0
2022-12-31T04:16:47.238Z,0
2022-12-31T04:17:47.200Z,0
2022-12-31T04:18:47.184Z,0
2022-12-31T04:19:47.217Z,0
2022-12-31T04:20:47.202Z,0
2022-12-31T04:21:47.187Z,0
2022-12-31T04:22:47.186Z,0
2022-12-31T04:23:47.191Z,0
2022-12-31T04:24:47.211Z,0
2022-12-31T04:25:47.228Z,0
2022-12-31T04:26:47.185Z,0
2022-12-31T04:27:47.181Z,0
2022-12-31T04:28:47.204Z,0
2022-12-31T04:29:47.185Z,0
2022-12-31T04:30:47.186Z,0
2022-12-31T04:31:47.223Z,0
2022-12-31T04:32:47.208Z,0
2022-12-31T04:33:47.215Z,0
2022-12-31T04:34:47.186Z,0
2022-12-31T04:35:47.200Z,0
2022-12-31T04:36:47.189Z,5
2022-12-31T04:37:47.187Z,4
2022-12-31T04:38:47.194Z,0
2022-12-31T04:39:47.199Z,0
2022-12-31T04:40:47.199Z,0
2022-12-31T04:41:47.191Z,0
2022-12-31T04:42:47.187Z,0
2022-12-31T04:43:47.198Z,0
2022-12-31T04:44:47.200Z,0
2022-12-31T04:45:47.314Z,0
2022-12-31T04:46:47.213Z,0
2022-12-31T04:47:47.190Z,0
2022-12-31T04:48:47.191Z,0
2022-12-31T04:49:47.191Z,0
2022-12-31T04:50:47.215Z,0
2022-12-31T04:51:47.197Z,6
2022-12-31T04:52:47.204Z,6
2022-12-31T04:53:47.205Z,7
2022-12-31T04:54:47.188Z,8
2022-12-31T04:55:47.196Z,8
2022-12-31T04:56:47.226Z,8
2022-12-31T04:57:47.192Z,8
2022-12-31T04:58:47.212Z,10
2022-12-31T04:59:47.196Z,10
2022-12-31T05:00:47.197Z,10
2022-12-31T05:01:47.315Z,10
2022-12-31T05:02:47.495Z,9
2022-12-31T05:03:47.203Z,9
2022-12-31T05:04:47.191Z,8
2022-12-31T05:05:47.211Z,7
2022-12-31T05:06:47.193Z,6
2022-12-31T05:07:47.196Z,5
2022-12-31T05:08:47.200Z,6
2022-12-31T05:09:47.204Z,5
2022-12-31T05:10:47.195Z,4
2022-12-31T05:11:47.205Z,4
2022-12-31T05:12:47.197Z,4
2022-12-31T05:13:47.197Z,4
2022-12-31T05:14:47.200Z,3
2022-12-31T05:15:47.377Z,4
2022-12-31T05:16:47.256Z,4
2022-12-31T05:17:47.196Z,6
2022-12-31T05:18:47.210Z,7
2022-12-31T05:19:47.199Z,8
2022-12-31T05:20:47.191Z,8
2022-12-31T05:21:47.198Z,13
2022-12-31T05:22:47.194Z,16
2022-12-31T05:23:47.220Z,14
2022-12-31T05:24:47.215Z,15
2022-12-31T05:25:47.208Z,14
2022-12-31T05:26:47.187Z,12
2022-12-31T05:27:47.232Z,12
2022-12-31T05:28:47.201Z,0
2022-12-31T05:29:47.205Z,0
2022-12-31T05:30:47.216Z,0
2022-12-31T05:31:47.199Z,0
2022-12-31T05:32:47.203Z,14
2022-12-31T05:33:47.203Z,12
2022-12-31T05:34:47.206Z,11
2022-12-31T05:35:47.198Z,11
2022-12-31T05:36:47.209Z,12
2022-12-31T05:37:47.338Z,11
2022-12-31T05:38:47.204Z,12
2022-12-31T05:39:47.193Z,2
2022-12-31T05:40:47.207Z,10
2022-12-31T05:41:47.197Z,8
2022-12-31T05:42:47.198Z,8
2022-12-31T05:43:47.239Z,9
2022-12-31T05:44:47.204Z,9
2022-12-31T05:45:47.246Z,7
2022-12-31T05:46:47.221Z,7
2022-12-31T05:47:47.196Z,0
2022-12-31T05:48:47.199Z,0
2022-12-31T05:49:47.202Z,0
2022-12-31T05:50:47.214Z,0
2022-12-31T05:51:47.199Z,0
2022-12-31T05:52:47.751Z,0
2022-12-31T05:53:47.216Z,0
2022-12-31T05:54:47.586Z,0
2022-12-31T05:55:47.204Z,0
2022-12-31T05:56:47.199Z,0
2022-12-31T05:57:47.205Z,0
2022-12-31T05:58:47.230Z,0
2022-12-31T05:59:47.241Z,18
2022-12-31T06:00:47.203Z,20
2022-12-31T06:01:47.194Z,20
2022-12-31T06:02:47.272Z,0
2022-12-31T06:03:47.280Z,0
2022-12-31T06:04:47.196Z,0
2022-12-31T06:05:47.193Z,0
2022-12-31T06:06:47.199Z,0
2022-12-31T06:07:47.205Z,0
2022-12-31T06:08:47.199Z,0
2022-12-31T06:09:47.201Z,0
2022-12-31T06:10:47.197Z,0
2022-12-31T06:11:47.217Z,0
2022-12-31T06:12:47.202Z,0
2022-12-31T06:13:47.207Z,0
2022-12-31T06:14:47.198Z,0
2022-12-31T06:15:47.321Z,0
2022-12-31T06:16:47.203Z,0
2022-12-31T06:17:47.205Z,0
2022-12-31T06:18:47.206Z,0
2022-12-31T06:19:47.310Z,0
2022-12-31T06:20:47.264Z,0
2022-12-31T06:21:47.195Z,0
2022-12-31T06:22:47.198Z,0
2022-12-31T06:23:47.216Z,0
2022-12-31T06:24:47.201Z,0
2022-12-31T06:25:47.217Z,0
2022-12-31T06:26:47.200Z,0
2022-12-31T06:27:47.196Z,0
2022-12-31T06:28:47.220Z,0
2022-12-31T06:29:47.243Z,0
2022-12-31T06:30:47.307Z,0
2022-12-31T06:31:47.199Z,0
2022-12-31T06:32:47.201Z,0
2022-12-31T06:33:47.198Z,0
2022-12-31T06:35:47.212Z,0
2022-12-31T06:36:47.203Z,0
2022-12-31T06:37:47.197Z,0
2022-12-31T06:38:47.217Z,0
2022-12-31T06:39:47.210Z,0
2022-12-31T06:40:47.209Z,0
2022-12-31T06:41:47.204Z,0
2022-12-31T06:42:47.205Z,0
2022-12-31T06:43:47.210Z,9
2022-12-31T06:44:47.234Z,0
2022-12-31T06:45:47.199Z,0
2022-12-31T06:46:47.231Z,0
2022-12-31T06:47:47.200Z,0
2022-12-31T06:48:47.260Z,0
2022-12-31T06:49:47.208Z,0
2022-12-31T06:50:47.205Z,0
2022-12-31T06:51:47.202Z,0
2022-12-31T06:52:47.205Z,0
2022-12-31T06:53:47.212Z,0
2022-12-31T06:54:47.202Z,0
2022-12-31T06:55:47.201Z,0
2022-12-31T06:56:47.206Z,0
2022-12-31T06:57:47.219Z,0
2022-12-31T06:58:47.220Z,0
2022-12-31T06:59:47.210Z,0
2022-12-31T07:00:47.247Z,0
2022-12-31T07:01:47.354Z,0
2022-12-31T07:02:47.309Z,0
2022-12-31T07:03:47.207Z,0
2022-12-31T07:04:47.212Z,0
2022-12-31T07:05:47.206Z,0
2022-12-31T07:06:47.212Z,0
2022-12-31T07:07:47.201Z,0
2022-12-31T07:08:47.211Z,0
2022-12-31T07:09:47.220Z,0
2022-12-31T07:10:47.207Z,0
2022-12-31T07:11:47.213Z,0
2022-12-31T07:12:47.219Z,0
2022-12-31T07:13:47.207Z,0
2022-12-31T07:14:47.222Z,0
2022-12-31T07:15:47.332Z,10
2022-12-31T07:16:47.216Z,10
2022-12-31T07:17:47.207Z,4
2022-12-31T07:18:47.212Z,0
2022-12-31T07:19:51.064Z,0
2022-12-31T07:20:47.222Z,0
2022-12-31T07:21:47.206Z,0
2022-12-31T07:22:47.213Z,0
2022-12-31T07:23:47.216Z,0
2022-12-31T07:24:47.211Z,0
2022-12-31T07:25:47.210Z,0
2022-12-31T07:26:52.591Z,0
2022-12-31T07:27:47.206Z,0
2022-12-31T07:28:47.207Z,0
2022-12-31T07:29:47.210Z,0
2022-12-31T07:30:47.211Z,0
2022-12-31T07:31:47.245Z,0
2022-12-31T07:32:47.212Z,0
2022-12-31T07:33:47.222Z,0
2022-12-31T07:34:47.218Z,0
2022-12-31T07:35:47.206Z,0
2022-12-31T07:36:47.211Z,0
2022-12-31T07:37:47.212Z,0
2022-12-31T07:38:47.212Z,0
2022-12-31T07:40:47.225Z,0
2022-12-31T07:41:47.216Z,0
2022-12-31T07:42:47.214Z,0
2022-12-31T07:43:47.217Z,0
2022-12-31T07:44:47.217Z,0
2022-12-31T07:45:47.214Z,0
2022-12-31T07:46:47.268Z,0
2022-12-31T07:47:47.219Z,0
2022-12-31T07:48:47.208Z,0
2022-12-31T07:49:47.218Z,0
2022-12-31T07:50:47.211Z,0
2022-12-31T07:51:47.225Z,0
2022-12-31T07:52:47.215Z,0
2022-12-31T07:53:47.221Z,0
2022-12-31T07:54:47.214Z,0
2022-12-31T07:55:47.212Z,0
2022-12-31T07:56:47.230Z,0
2022-12-31T07:57:47.239Z,0
2022-12-31T07:58:47.223Z,0
2022-12-31T07:59:47.212Z,0
2022-12-31T08:00:47.248Z,0
2022-12-31T08:01:47.425Z,0
2022-12-31T08:02:47.281Z,0
2022-12-31T08:03:47.221Z,0
2022-12-31T08:04:47.217Z,0
2022-12-31T08:05:47.236Z,0
2022-12-31T08:06:47.223Z,0
2022-12-31T08:07:47.231Z,0
2022-12-31T08:08:47.216Z,0
2022-12-31T08:09:47.217Z,0
2022-12-31T08:10:47.260Z,0
2022-12-31T08:11:47.222Z,0
2022-12-31T08:12:47.254Z,0
2022-12-31T08:13:47.223Z,0
2022-12-31T08:14:47.235Z,0
2022-12-31T08:15:47.233Z,0
2022-12-31T08:16:47.252Z,0
2022-12-31T08:17:47.212Z,0
2022-12-31T08:18:47.218Z,0
2022-12-31T08:19:47.227Z,0
2022-12-31T08:20:47.225Z,0
2022-12-31T08:21:47.219Z,0
2022-12-31T08:22:47.224Z,0
2022-12-31T08:23:47.221Z,0
2022-12-31T08:24:47.216Z,0
2022-12-31T08:25:47.218Z,0
2022-12-31T08:26:52.772Z,0
2022-12-31T08:27:47.228Z,0
2022-12-31T08:28:47.225Z,0
2022-12-31T08:29:47.217Z,0
2022-12-31T08:30:47.228Z,0
2022-12-31T08:31:47.259Z,0
2022-12-31T08:32:47.223Z,0
2022-12-31T08:33:47.258Z,0
2022-12-31T08:34:47.219Z,0
2022-12-31T08:35:47.242Z,0
2022-12-31T08:36:47.234Z,0
2022-12-31T08:37:47.215Z,0
2022-12-31T08:38:47.225Z,0
2022-12-31T08:39:47.220Z,0
2022-12-31T08:40:47.214Z,0
2022-12-31T08:41:47.221Z,0
2022-12-31T08:42:47.215Z,0
2022-12-31T08:43:47.220Z,0
2022-12-31T08:44:47.222Z,0
2022-12-31T08:46:47.226Z,0
2022-12-31T08:47:47.226Z,0
2022-12-31T08:48:47.217Z,4
2022-12-31T08:49:47.274Z,0
2022-12-31T08:50:47.269Z,0
2022-12-31T08:51:47.215Z,0
2022-12-31T08:52:47.247Z,0
2022-12-31T08:53:47.231Z,0
2022-12-31T08:54:47.231Z,0
2022-12-31T08:55:47.225Z,4
2022-12-31T08:56:50.484Z,0
2022-12-31T08:57:47.220Z,0
2022-12-31T08:58:47.226Z,0
2022-12-31T08:59:47.226Z,0
2022-12-31T09:00:47.259Z,0
2022-12-31T09:01:47.325Z,0
2022-12-31T09:02:48.375Z,0
2022-12-31T09:03:47.292Z,0
2022-12-31T09:04:47.254Z,0
2022-12-31T09:05:47.238Z,0
2022-12-31T09:06:47.225Z,0
2022-12-31T09:07:47.231Z,0
2022-12-31T09:08:47.237Z,0
2022-12-31T09:09:47.230Z,0
2022-12-31T09:10:47.247Z,0
2022-12-31T09:11:47.231Z,0
2022-12-31T09:12:47.335Z,0
2022-12-31T09:13:47.235Z,0
2022-12-31T09:14:47.244Z,0
2022-12-31T09:15:47.231Z,0
2022-12-31T09:16:47.297Z,0
2022-12-31T09:17:47.233Z,0
2022-12-31T09:18:47.235Z,0
2022-12-31T09:19:47.234Z,0
2022-12-31T09:20:47.232Z,0
2022-12-31T09:21:47.225Z,0
2022-12-31T09:22:47.233Z,0
2022-12-31T09:23:47.237Z,0
2022-12-31T09:24:47.225Z,0
2022-12-31T09:25:47.224Z,0
2022-12-31T09:26:47.231Z,0
2022-12-31T09:27:47.230Z,0
2022-12-31T09:28:47.236Z,0
2022-12-31T09:29:47.230Z,0
2022-12-31T09:30:47.236Z,0
2022-12-31T09:31:47.305Z,0
2022-12-31T09:32:47.224Z,0
2022-12-31T09:34:47.229Z,0
2022-12-31T09:35:47.290Z,0
2022-12-31T09:36:47.236Z,0
2022-12-31T09:37:47.242Z,0
2022-12-31T09:38:47.231Z,0
2022-12-31T09:39:47.233Z,0
2022-12-31T09:40:47.239Z,0
2022-12-31T09:41:47.231Z,0
2022-12-31T09:42:47.230Z,0
2022-12-31T09:43:47.240Z,0
2022-12-31T09:44:47.229Z,0
2022-12-31T09:45:47.248Z,0
2022-12-31T09:46:47.234Z,0
2022-12-31T09:47:47.226Z,0
2022-12-31T09:48:47.228Z,0
2022-12-31T09:49:47.271Z,0
2022-12-31T09:50:47.231Z,0
2022-12-31T09:51:47.237Z,0
2022-12-31T09:52:47.232Z,0
2022-12-31T09:53:47.240Z,0
2022-12-31T09:54:47.226Z,0
2022-12-31T09:55:47.649Z,0
2022-12-31T09:56:47.229Z,0
2022-12-31T09:57:47.231Z,0
2022-12-31T09:58:47.248Z,0
2022-12-31T09:59:47.239Z,0
2022-12-31T10:00:47.245Z,0
2022-12-31T10:01:47.419Z,0
2022-12-31T10:02:47.420Z,0
2022-12-31T10:03:47.242Z,0
2022-12-31T10:04:47.409Z,0
2022-12-31T10:05:47.235Z,0
2022-12-31T10:06:47.262Z,0
2022-12-31T10:07:52.376Z,0
2022-12-31T10:08:47.234Z,0
2022-12-31T10:09:47.240Z,0
2022-12-31T10:10:47.240Z,0
2022-12-31T10:11:47.234Z,0
2022-12-31T10:12:47.252Z,0
2022-12-31T10:13:47.247Z,0
2022-12-31T10:14:47.797Z,0
2022-12-31T10:15:47.237Z,0
2022-12-31T10:16:47.268Z,0
2022-12-31T10:17:47.226Z,0
2022-12-31T10:18:47.243Z,0
2022-12-31T10:19:47.231Z,0
2022-12-31T10:20:47.231Z,0
2022-12-31T10:21:47.238Z,0
2022-12-31T10:22:47.232Z,0
2022-12-31T10:23:47.241Z,0
2022-12-31T10:24:47.236Z,0
2022-12-31T10:25:47.236Z,0
2022-12-31T10:26:52.917Z,0
2022-12-31T10:27:47.273Z,0
2022-12-31T10:28:47.244Z,0
2022-12-31T10:29:47.279Z,0
2022-12-31T10:30:47.258Z,0
2022-12-31T10:31:47.241Z,0
2022-12-31T10:32:47.239Z,0
2022-12-31T10:33:47.241Z,0
2022-12-31T10:34:47.232Z,0
2022-12-31T10:35:47.302Z,0
2022-12-31T10:36:47.240Z,0
2022-12-31T10:37:47.269Z,0
2022-12-31T10:38:47.238Z,0
2022-12-31T10:39:47.246Z,0
2022-12-31T10:40:47.237Z,0
2022-12-31T10:41:47.242Z,0
2022-12-31T10:42:47.242Z,0
2022-12-31T10:43:47.244Z,0
2022-12-31T10:44:47.232Z,0
2022-12-31T10:45:47.310Z,0
2022-12-31T10:46:47.254Z,0
2022-12-31T10:47:47.239Z,0
2022-12-31T10:48:47.239Z,0
2022-12-31T10:49:47.253Z,0
2022-12-31T10:50:47.239Z,0
2022-12-31T10:51:47.425Z,0
2022-12-31T10:52:47.239Z,0
2022-12-31T10:53:47.244Z,0
2022-12-31T10:54:47.240Z,0
2022-12-31T10:55:47.235Z,0
2022-12-31T10:56:47.236Z,0
2022-12-31T10:57:47.241Z,0
2022-12-31T10:58:47.242Z,0
2022-12-31T10:59:47.236Z,0
2022-12-31T11:00:47.238Z,0
2022-12-31T11:01:47.396Z,0
2022-12-31T11:02:47.438Z,0
2022-12-31T11:03:47.298Z,0
2022-12-31T11:04:47.244Z,0
2022-12-31T11:05:47.318Z,0
2022-12-31T11:06:47.241Z,0
2022-12-31T11:07:47.242Z,0
2022-12-31T11:08:47.266Z,0
2022-12-31T11:09:47.252Z,0
2022-12-31T11:10:47.238Z,0
2022-12-31T11:11:47.255Z,15
2022-12-31T11:12:47.239Z,0
2022-12-31T11:13:47.347Z,0
2022-12-31T11:14:47.243Z,0
2022-12-31T11:15:50.242Z,0
2022-12-31T11:16:47.241Z,0
2022-12-31T11:17:47.241Z,0
2022-12-31T11:18:47.241Z,0
2022-12-31T11:19:47.246Z,10
2022-12-31T11:20:47.260Z,10
2022-12-31T11:21:47.248Z,0
2022-12-31T11:22:47.251Z,0
2022-12-31T11:23:47.246Z,0
2022-12-31T11:24:47.306Z,0
2022-12-31T11:25:47.245Z,0
2022-12-31T11:26:47.253Z,0
2022-12-31T11:27:49.468Z,0
2022-12-31T11:28:47.248Z,0
2022-12-31T11:29:47.256Z,7
2022-12-31T11:30:47.307Z,7
2022-12-31T11:31:47.243Z,0
2022-12-31T11:32:47.239Z,0
2022-12-31T11:33:50.488Z,0
2022-12-31T11:34:47.258Z,0
2022-12-31T11:35:47.248Z,0
2022-12-31T11:36:47.246Z,21
2022-12-31T11:37:47.249Z,0
2022-12-31T11:38:47.250Z,0
2022-12-31T11:39:47.284Z,0
2022-12-31T11:40:47.256Z,0
2022-12-31T11:41:47.249Z,0
2022-12-31T11:42:47.260Z,0
2022-12-31T11:43:47.271Z,0
2022-12-31T11:44:47.251Z,0
2022-12-31T11:45:50.717Z,0
2022-12-31T11:46:47.349Z,0
2022-12-31T11:48:28.062Z,0
2022-12-31T11:48:47.256Z,0
2022-12-31T11:49:47.263Z,0
2022-12-31T11:50:47.259Z,0
2022-12-31T11:51:50.595Z,0
2022-12-31T11:52:47.256Z,0
2022-12-31T11:53:47.256Z,0
2022-12-31T11:54:47.275Z,0
2022-12-31T11:55:47.260Z,0
2022-12-31T11:56:47.266Z,0
2022-12-31T11:58:47.261Z,0
2022-12-31T11:59:47.255Z,8
2022-12-31T12:00:47.295Z,8
2022-12-31T12:01:47.272Z,0
2022-12-31T12:02:47.308Z,0
2022-12-31T12:03:47.363Z,0
2022-12-31T12:04:47.253Z,0
2022-12-31T12:05:47.257Z,0
2022-12-31T12:06:47.263Z,0
2022-12-31T12:07:47.249Z,0
2022-12-31T12:08:47.258Z,0
2022-12-31T12:09:47.249Z,0
2022-12-31T12:10:47.285Z,0
2022-12-31T12:11:47.251Z,0
2022-12-31T12:12:47.429Z,0
2022-12-31T12:13:47.252Z,0
2022-12-31T12:14:47.255Z,0
2022-12-31T12:15:47.268Z,0
2022-12-31T12:16:47.262Z,0
2022-12-31T12:17:47.260Z,0
2022-12-31T12:18:47.281Z,0
2022-12-31T12:19:47.280Z,0
2022-12-31T12:20:47.255Z,0
2022-12-31T12:21:47.276Z,0
2022-12-31T12:22:49.530Z,0
2022-12-31T12:23:47.257Z,0
2022-12-31T12:24:47.258Z,0
2022-12-31T12:25:47.266Z,0
2022-12-31T12:26:47.254Z,0
2022-12-31T12:27:47.258Z,0
2022-12-31T12:28:47.263Z,0
2022-12-31T12:29:47.262Z,0
2022-12-31T12:30:47.271Z,0
2022-12-31T12:31:47.300Z,0
2022-12-31T12:32:47.266Z,0
2022-12-31T12:33:47.258Z,0
2022-12-31T12:34:49.809Z,0
2022-12-31T12:35:47.260Z,0
2022-12-31T12:36:47.262Z,0
2022-12-31T12:37:47.256Z,0
2022-12-31T12:38:47.267Z,0
2022-12-31T12:39:47.255Z,0
2022-12-31T12:40:47.258Z,0
2022-12-31T12:41:47.287Z,0
2022-12-31T12:42:47.264Z,0
2022-12-31T12:43:47.284Z,0
2022-12-31T12:44:47.259Z,0
2022-12-31T12:45:51.893Z,0
2022-12-31T12:46:48.422Z,0
2022-12-31T12:47:47.261Z,0
2022-12-31T12:48:47.273Z,0
2022-12-31T12:49:47.279Z,0
2022-12-31T12:50:47.330Z,0
2022-12-31T12:51:47.292Z,0
2022-12-31T12:52:47.251Z,0
2022-12-31T12:53:47.257Z,0
2022-12-31T12:54:47.268Z,0
2022-12-31T12:55:47.268Z,0
2022-12-31T12:56:47.270Z,0
2022-12-31T12:57:47.266Z,0
2022-12-31T12:58:47.262Z,0
2022-12-31T12:59:47.397Z,0
2022-12-31T13:00:47.297Z,0
2022-12-31T13:01:47.629Z,0
2022-12-31T13:02:47.337Z,0
2022-12-31T13:04:23.363Z,0
2022-12-31T13:04:47.265Z,0
2022-12-31T13:05:47.274Z,0
2022-12-31T13:06:47.255Z,0
2022-12-31T13:07:47.261Z,0
2022-12-31T13:08:47.267Z,0
2022-12-31T13:09:47.264Z,0
2022-12-31T13:10:47.267Z,0
2022-12-31T13:11:47.263Z,0
2022-12-31T13:13:22.902Z,0
2022-12-31T13:13:47.269Z,0
2022-12-31T13:14:47.277Z,0
2022-12-31T13:15:47.265Z,0
2022-12-31T13:16:47.323Z,0
2022-12-31T13:17:53.308Z,0
2022-12-31T13:18:47.272Z,0
2022-12-31T13:19:47.271Z,0
2022-12-31T13:20:47.260Z,0
2022-12-31T13:21:47.270Z,0
2022-12-31T13:22:47.270Z,0
2022-12-31T13:23:47.264Z,0
2022-12-31T13:24:47.261Z,0
2022-12-31T13:25:47.258Z,0
2022-12-31T13:26:47.276Z,0
2022-12-31T13:27:47.272Z,0
2022-12-31T13:28:47.266Z,0
2022-12-31T13:29:47.263Z,0
2022-12-31T13:30:47.268Z,0
2022-12-31T13:31:47.291Z,0
2022-12-31T13:32:47.302Z,0
2022-12-31T13:33:47.275Z,0
2022-12-31T13:34:47.273Z,0
2022-12-31T13:35:47.259Z,0
2022-12-31T13:36:47.258Z,0
2022-12-31T13:37:47.267Z,0
2022-12-31T13:38:47.271Z,0
2022-12-31T13:39:47.264Z,0
2022-12-31T13:40:47.288Z,0
2022-12-31T13:41:47.269Z,0
2022-12-31T13:42:47.263Z,0
2022-12-31T13:43:50.774Z,0
2022-12-31T13:44:47.265Z,0
2022-12-31T13:45:47.333Z,0
2022-12-31T13:46:47.262Z,0
2022-12-31T13:47:47.269Z,7
2022-12-31T13:48:47.276Z,0
2022-12-31T13:49:47.262Z,0
2022-12-31T13:50:47.332Z,0
2022-12-31T13:51:47.277Z,0
2022-12-31T13:52:47.271Z,0
2022-12-31T13:53:47.268Z,0
2022-12-31T13:54:47.259Z,0
2022-12-31T13:55:49.743Z,0
2022-12-31T13:56:47.268Z,0
2022-12-31T13:57:47.277Z,0
2022-12-31T13:58:47.273Z,0
2022-12-31T13:59:47.276Z,0
2022-12-31T14:00:47.310Z,0
2022-12-31T14:01:47.389Z,0
2022-12-31T14:02:47.458Z,0
2022-12-31T14:03:47.279Z,0
2022-12-31T14:04:47.269Z,0
2022-12-31T14:05:47.276Z,0
2022-12-31T14:06:47.274Z,0
2022-12-31T14:07:47.274Z,0
2022-12-31T14:08:47.273Z,0
2022-12-31T14:09:47.266Z,0
2022-12-31T14:10:47.268Z,0
2022-12-31T14:11:47.271Z,0
2022-12-31T14:12:47.285Z,0
2022-12-31T14:13:47.265Z,0
2022-12-31T14:14:47.312Z,0
2022-12-31T14:15:47.269Z,0
2022-12-31T14:16:47.317Z,0
2022-12-31T14:17:47.273Z,0
2022-12-31T14:18:47.280Z,0
2022-12-31T14:19:47.275Z,0
2022-12-31T14:20:47.327Z,0
2022-12-31T14:21:47.284Z,0
2022-12-31T14:22:47.276Z,0
2022-12-31T14:23:47.288Z,0
2022-12-31T14:24:47.279Z,0
2022-12-31T14:25:47.271Z,0
2022-12-31T14:26:47.268Z,0
2022-12-31T14:27:47.269Z,0
2022-12-31T14:28:47.327Z,0
2022-12-31T14:29:47.281Z,0
2022-12-31T14:30:47.279Z,0
2022-12-31T14:31:47.404Z,0
2022-12-31T14:32:47.271Z,0
2022-12-31T14:33:47.283Z,0
2022-12-31T14:34:47.293Z,0
2022-12-31T14:35:47.279Z,0
2022-12-31T14:36:47.290Z,0
2022-12-31T14:37:47.290Z,0
2022-12-31T14:38:47.279Z,0
2022-12-31T14:39:47.268Z,0
2022-12-31T14:40:47.272Z,0
2022-12-31T14:41:47.274Z,0
2022-12-31T14:42:47.285Z,0
2022-12-31T14:43:47.272Z,0
2022-12-31T14:44:47.271Z,0
2022-12-31T14:45:47.371Z,0
2022-12-31T14:46:47.274Z,0
2022-12-31T14:47:47.282Z,0
2022-12-31T14:48:47.287Z,0
2022-12-31T14:49:47.289Z,0
2022-12-31T14:50:47.283Z,0
2022-12-31T14:51:47.286Z,0
2022-12-31T14:52:47.287Z,0
2022-12-31T14:53:47.287Z,0
2022-12-31T14:54:47.276Z,0
2022-12-31T14:55:47.273Z,0
2022-12-31T14:56:47.273Z,0
2022-12-31T14:58:25.800Z,0
2022-12-31T14:58:47.284Z,0
2022-12-31T14:59:47.287Z,0
2022-12-31T15:00:47.297Z,0
2022-12-31T15:01:47.393Z,0
2022-12-31T15:02:47.430Z,0
2022-12-31T15:03:47.304Z,0
2022-12-31T15:04:47.283Z,0
2022-12-31T15:05:47.286Z,0
2022-12-31T15:06:47.283Z,0